sensor_id;sensor_type;location;lat;lon;timestamp;P1;durP1;ratioP1;P2;durP2;ratioP2
40373;SDS011;26079;45.958;12.492;2023-06-19T00:00:38;9.85;;;9.05;;
40373;SDS011;26079;45.958;12.492;2023-06-19T00:03:04;10.43;;;9.43;;
40373;SDS011;26079;45.958;12.492;2023-06-19T00:05:30;10.25;;;9.38;;
40373;SDS011;26079;45.958;12.492;2023-06-19T00:07:56;14.27;;;10.68;;
40373;SDS011;26079;45.958;12.492;2023-06-19T00:10:22;12.32;;;11.20;;
40373;SDS011;26079;45.958;12.492;2023-06-19T00:12:48;11.20;;;10.10;;
40373;SDS011;26079;45.958;12.492;2023-06-19T00:15:14;11.80;;;10.73;;
40373;SDS011;26079;45.958;12.492;2023-06-19T00:17:39;12.15;;;10.38;;
40373;SDS011;26079;45.958;12.492;2023-06-19T00:20:06;11.02;;;9.95;;
40373;SDS011;26079;45.958;12.492;2023-06-19T00:22:33;11.35;;;10.32;;
40373;SDS011;26079;45.958;12.492;2023-06-19T00:24:59;11.10;;;10.10;;
40373;SDS011;26079;45.958;12.492;2023-06-19T00:27:25;11.38;;;9.10;;
40373;SDS011;26079;45.958;12.492;2023-06-19T00:29:51;11.15;;;10.05;;
40373;SDS011;26079;45.958;12.492;2023-06-19T00:32:17;12.88;;;10.40;;
40373;SDS011;26079;45.958;12.492;2023-06-19T00:34:42;14.82;;;10.73;;
40373;SDS011;26079;45.958;12.492;2023-06-19T00:37:08;12.45;;;11.25;;
40373;SDS011;26079;45.958;12.492;2023-06-19T00:39:34;10.85;;;9.95;;
40373;SDS011;26079;45.958;12.492;2023-06-19T00:42:00;11.82;;;10.63;;
40373;SDS011;26079;45.958;12.492;2023-06-19T00:44:26;12.02;;;10.85;;
40373;SDS011;26079;45.958;12.492;2023-06-19T00:46:56;11.10;;;9.98;;
40373;SDS011;26079;45.958;12.492;2023-06-19T00:49:24;10.52;;;9.52;;
40373;SDS011;26079;45.958;12.492;2023-06-19T00:51:51;12.48;;;11.27;;
40373;SDS011;26079;45.958;12.492;2023-06-19T00:54:18;12.68;;;11.07;;
40373;SDS011;26079;45.958;12.492;2023-06-19T00:56:44;11.43;;;10.40;;
40373;SDS011;26079;45.958;12.492;2023-06-19T00:59:17;11.35;;;10.25;;
40373;SDS011;26079;45.958;12.492;2023-06-19T01:01:46;11.68;;;10.48;;
40373;SDS011;26079;45.958;12.492;2023-06-19T01:04:12;11.60;;;10.50;;
40373;SDS011;26079;45.958;12.492;2023-06-19T01:09:10;11.63;;;10.57;;
40373;SDS011;26079;45.958;12.492;2023-06-19T01:11:42;10.57;;;9.52;;
40373;SDS011;26079;45.958;12.492;2023-06-19T01:14:15;11.13;;;10.07;;
40373;SDS011;26079;45.958;12.492;2023-06-19T01:16:45;12.68;;;11.32;;
40373;SDS011;26079;45.958;12.492;2023-06-19T01:19:13;11.30;;;10.35;;
40373;SDS011;26079;45.958;12.492;2023-06-19T01:21:42;12.30;;;11.18;;
40373;SDS011;26079;45.958;12.492;2023-06-19T01:24:08;12.68;;;11.52;;
40373;SDS011;26079;45.958;12.492;2023-06-19T01:26:34;12.90;;;11.23;;
40373;SDS011;26079;45.958;12.492;2023-06-19T01:28:59;11.77;;;10.63;;
40373;SDS011;26079;45.958;12.492;2023-06-19T01:31:29;12.05;;;10.85;;
40373;SDS011;26079;45.958;12.492;2023-06-19T01:34:01;13.70;;;11.60;;
40373;SDS011;26079;45.958;12.492;2023-06-19T01:36:29;14.48;;;11.27;;
40373;SDS011;26079;45.958;12.492;2023-06-19T01:38:55;11.95;;;10.88;;
40373;SDS011;26079;45.958;12.492;2023-06-19T01:41:22;12.65;;;11.45;;
40373;SDS011;26079;45.958;12.492;2023-06-19T01:43:49;13.65;;;11.82;;
40373;SDS011;26079;45.958;12.492;2023-06-19T01:46:16;12.40;;;11.10;;
40373;SDS011;26079;45.958;12.492;2023-06-19T01:48:42;12.20;;;11.07;;
40373;SDS011;26079;45.958;12.492;2023-06-19T01:51:07;13.55;;;11.27;;
40373;SDS011;26079;45.958;12.492;2023-06-19T01:53:33;12.95;;;11.65;;
40373;SDS011;26079;45.958;12.492;2023-06-19T01:56:01;13.45;;;12.15;;
40373;SDS011;26079;45.958;12.492;2023-06-19T01:58:27;15.18;;;12.38;;
40373;SDS011;26079;45.958;12.492;2023-06-19T02:00:53;19.45;;;12.98;;
40373;SDS011;26079;45.958;12.492;2023-06-19T02:03:19;15.02;;;12.68;;
40373;SDS011;26079;45.958;12.492;2023-06-19T02:05:44;16.23;;;13.18;;
40373;SDS011;26079;45.958;12.492;2023-06-19T02:08:10;11.23;;;10.23;;
40373;SDS011;26079;45.958;12.492;2023-06-19T02:10:36;12.88;;;11.48;;
40373;SDS011;26079;45.958;12.492;2023-06-19T02:13:02;13.40;;;12.25;;
40373;SDS011;26079;45.958;12.492;2023-06-19T02:15:27;12.13;;;10.63;;
40373;SDS011;26079;45.958;12.492;2023-06-19T02:17:56;9.68;;;8.82;;
40373;SDS011;26079;45.958;12.492;2023-06-19T02:20:22;10.13;;;9.23;;
40373;SDS011;26079;45.958;12.492;2023-06-19T02:22:51;10.07;;;8.98;;
40373;SDS011;26079;45.958;12.492;2023-06-19T02:25:17;11.85;;;10.68;;
40373;SDS011;26079;45.958;12.492;2023-06-19T02:27:43;9.45;;;8.40;;
40373;SDS011;26079;45.958;12.492;2023-06-19T02:30:09;13.23;;;9.23;;
40373;SDS011;26079;45.958;12.492;2023-06-19T02:32:35;10.25;;;9.35;;
40373;SDS011;26079;45.958;12.492;2023-06-19T02:35:01;10.15;;;9.25;;
40373;SDS011;26079;45.958;12.492;2023-06-19T02:37:27;9.93;;;9.02;;
40373;SDS011;26079;45.958;12.492;2023-06-19T02:39:54;10.27;;;9.38;;
40373;SDS011;26079;45.958;12.492;2023-06-19T02:42:20;10.10;;;9.13;;
40373;SDS011;26079;45.958;12.492;2023-06-19T02:44:46;10.15;;;9.15;;
40373;SDS011;26079;45.958;12.492;2023-06-19T02:47:11;10.30;;;9.30;;
40373;SDS011;26079;45.958;12.492;2023-06-19T02:49:37;9.07;;;8.20;;
40373;SDS011;26079;45.958;12.492;2023-06-19T02:52:03;12.90;;;10.10;;
40373;SDS011;26079;45.958;12.492;2023-06-19T02:54:29;10.20;;;9.15;;
40373;SDS011;26079;45.958;12.492;2023-06-19T02:56:55;10.07;;;9.10;;
40373;SDS011;26079;45.958;12.492;2023-06-19T02:59:21;10.95;;;9.57;;
40373;SDS011;26079;45.958;12.492;2023-06-19T03:01:47;13.02;;;9.13;;
40373;SDS011;26079;45.958;12.492;2023-06-19T03:04:12;11.23;;;9.73;;
40373;SDS011;26079;45.958;12.492;2023-06-19T03:06:38;10.68;;;9.50;;
40373;SDS011;26079;45.958;12.492;2023-06-19T03:09:05;10.07;;;9.25;;
40373;SDS011;26079;45.958;12.492;2023-06-19T03:11:37;11.02;;;10.05;;
40373;SDS011;26079;45.958;12.492;2023-06-19T03:14:04;17.63;;;10.02;;
40373;SDS011;26079;45.958;12.492;2023-06-19T03:16:32;10.13;;;9.07;;
40373;SDS011;26079;45.958;12.492;2023-06-19T03:18:59;9.55;;;8.80;;
40373;SDS011;26079;45.958;12.492;2023-06-19T03:21:25;10.60;;;9.57;;
40373;SDS011;26079;45.958;12.492;2023-06-19T03:23:51;9.55;;;8.65;;
40373;SDS011;26079;45.958;12.492;2023-06-19T03:26:18;12.18;;;9.32;;
40373;SDS011;26079;45.958;12.492;2023-06-19T03:28:44;11.20;;;10.05;;
40373;SDS011;26079;45.958;12.492;2023-06-19T03:31:12;11.25;;;9.95;;
40373;SDS011;26079;45.958;12.492;2023-06-19T03:33:38;11.85;;;9.25;;
40373;SDS011;26079;45.958;12.492;2023-06-19T03:36:04;14.20;;;9.60;;
40373;SDS011;26079;45.958;12.492;2023-06-19T03:38:30;10.68;;;9.68;;
40373;SDS011;26079;45.958;12.492;2023-06-19T03:40:56;8.68;;;7.88;;
40373;SDS011;26079;45.958;12.492;2023-06-19T03:43:21;10.10;;;9.10;;
40373;SDS011;26079;45.958;12.492;2023-06-19T03:45:47;8.40;;;7.63;;
40373;SDS011;26079;45.958;12.492;2023-06-19T03:48:13;10.13;;;9.13;;
40373;SDS011;26079;45.958;12.492;2023-06-19T03:50:38;9.75;;;8.90;;
40373;SDS011;26079;45.958;12.492;2023-06-19T03:53:04;8.27;;;7.57;;
40373;SDS011;26079;45.958;12.492;2023-06-19T03:55:30;10.35;;;8.93;;
40373;SDS011;26079;45.958;12.492;2023-06-19T03:57:56;8.32;;;7.53;;
40373;SDS011;26079;45.958;12.492;2023-06-19T04:00:21;9.02;;;8.13;;
40373;SDS011;26079;45.958;12.492;2023-06-19T04:02:47;9.10;;;7.95;;
40373;SDS011;26079;45.958;12.492;2023-06-19T04:05:13;9.20;;;8.30;;
40373;SDS011;26079;45.958;12.492;2023-06-19T04:07:40;8.82;;;7.53;;
40373;SDS011;26079;45.958;12.492;2023-06-19T04:10:06;15.73;;;9.20;;
40373;SDS011;26079;45.958;12.492;2023-06-19T04:12:33;11.20;;;9.20;;
40373;SDS011;26079;45.958;12.492;2023-06-19T04:14:59;10.02;;;8.23;;
40373;SDS011;26079;45.958;12.492;2023-06-19T04:17:25;10.07;;;8.70;;
40373;SDS011;26079;45.958;12.492;2023-06-19T04:19:51;11.30;;;8.27;;
40373;SDS011;26079;45.958;12.492;2023-06-19T04:22:16;11.20;;;8.45;;
40373;SDS011;26079;45.958;12.492;2023-06-19T04:24:42;9.38;;;8.43;;
40373;SDS011;26079;45.958;12.492;2023-06-19T04:27:08;9.65;;;8.02;;
40373;SDS011;26079;45.958;12.492;2023-06-19T04:29:34;10.80;;;9.85;;
40373;SDS011;26079;45.958;12.492;2023-06-19T04:32:00;10.45;;;8.85;;
40373;SDS011;26079;45.958;12.492;2023-06-19T04:34:28;10.02;;;8.95;;
40373;SDS011;26079;45.958;12.492;2023-06-19T04:36:54;8.85;;;8.05;;
40373;SDS011;26079;45.958;12.492;2023-06-19T04:39:23;12.70;;;9.25;;
40373;SDS011;26079;45.958;12.492;2023-06-19T04:41:49;12.35;;;8.25;;
40373;SDS011;26079;45.958;12.492;2023-06-19T04:44:15;8.25;;;7.43;;
40373;SDS011;26079;45.958;12.492;2023-06-19T04:46:41;7.38;;;6.78;;
40373;SDS011;26079;45.958;12.492;2023-06-19T04:49:09;8.07;;;7.10;;
40373;SDS011;26079;45.958;12.492;2023-06-19T04:51:35;8.82;;;7.72;;
40373;SDS011;26079;45.958;12.492;2023-06-19T04:54:01;8.90;;;7.32;;
40373;SDS011;26079;45.958;12.492;2023-06-19T04:56:27;8.18;;;7.38;;
40373;SDS011;26079;45.958;12.492;2023-06-19T04:58:53;9.40;;;7.78;;
40373;SDS011;26079;45.958;12.492;2023-06-19T05:01:24;8.63;;;7.70;;
40373;SDS011;26079;45.958;12.492;2023-06-19T05:03:54;10.18;;;6.40;;
40373;SDS011;26079;45.958;12.492;2023-06-19T05:06:21;10.20;;;6.25;;
40373;SDS011;26079;45.958;12.492;2023-06-19T05:08:50;8.18;;;5.68;;
40373;SDS011;26079;45.958;12.492;2023-06-19T05:11:16;7.18;;;6.32;;
40373;SDS011;26079;45.958;12.492;2023-06-19T05:13:42;9.15;;;5.88;;
40373;SDS011;26079;45.958;12.492;2023-06-19T05:16:07;8.13;;;7.05;;
40373;SDS011;26079;45.958;12.492;2023-06-19T05:18:33;10.23;;;6.47;;
40373;SDS011;26079;45.958;12.492;2023-06-19T05:20:59;6.18;;;5.30;;
40373;SDS011;26079;45.958;12.492;2023-06-19T05:23:24;6.82;;;6.20;;
40373;SDS011;26079;45.958;12.492;2023-06-19T05:25:50;5.97;;;5.47;;
40373;SDS011;26079;45.958;12.492;2023-06-19T05:28:16;7.25;;;6.00;;
40373;SDS011;26079;45.958;12.492;2023-06-19T05:30:41;10.63;;;6.80;;
40373;SDS011;26079;45.958;12.492;2023-06-19T05:33:07;6.80;;;6.20;;
40373;SDS011;26079;45.958;12.492;2023-06-19T05:35:33;8.57;;;7.03;;
40373;SDS011;26079;45.958;12.492;2023-06-19T05:37:59;6.60;;;5.95;;
40373;SDS011;26079;45.958;12.492;2023-06-19T05:40:24;8.60;;;5.63;;
40373;SDS011;26079;45.958;12.492;2023-06-19T05:42:50;5.78;;;5.15;;
40373;SDS011;26079;45.958;12.492;2023-06-19T05:45:16;7.22;;;6.55;;
40373;SDS011;26079;45.958;12.492;2023-06-19T05:47:41;6.45;;;5.78;;
40373;SDS011;26079;45.958;12.492;2023-06-19T05:50:07;6.72;;;6.13;;
40373;SDS011;26079;45.958;12.492;2023-06-19T05:52:33;6.88;;;5.55;;
40373;SDS011;26079;45.958;12.492;2023-06-19T05:54:59;6.45;;;5.82;;
40373;SDS011;26079;45.958;12.492;2023-06-19T05:57:25;6.07;;;5.43;;
40373;SDS011;26079;45.958;12.492;2023-06-19T05:59:51;5.88;;;5.38;;
40373;SDS011;26079;45.958;12.492;2023-06-19T06:02:18;6.85;;;6.03;;
40373;SDS011;26079;45.958;12.492;2023-06-19T06:04:44;7.95;;;5.47;;
40373;SDS011;26079;45.958;12.492;2023-06-19T06:07:10;10.48;;;5.60;;
40373;SDS011;26079;45.958;12.492;2023-06-19T06:09:36;7.22;;;6.00;;
40373;SDS011;26079;45.958;12.492;2023-06-19T06:12:02;8.07;;;5.72;;
40373;SDS011;26079;45.958;12.492;2023-06-19T06:14:28;6.65;;;5.93;;
40373;SDS011;26079;45.958;12.492;2023-06-19T06:16:53;6.35;;;5.47;;
40373;SDS011;26079;45.958;12.492;2023-06-19T06:19:19;8.35;;;5.70;;
40373;SDS011;26079;45.958;12.492;2023-06-19T06:21:47;7.40;;;6.75;;
40373;SDS011;26079;45.958;12.492;2023-06-19T06:24:13;8.25;;;6.68;;
40373;SDS011;26079;45.958;12.492;2023-06-19T06:26:39;8.48;;;5.88;;
40373;SDS011;26079;45.958;12.492;2023-06-19T06:29:04;7.55;;;5.95;;
40373;SDS011;26079;45.958;12.492;2023-06-19T06:31:30;5.53;;;5.03;;
40373;SDS011;26079;45.958;12.492;2023-06-19T06:33:56;7.35;;;5.10;;
40373;SDS011;26079;45.958;12.492;2023-06-19T06:36:22;7.05;;;5.47;;
40373;SDS011;26079;45.958;12.492;2023-06-19T06:38:47;8.27;;;5.30;;
40373;SDS011;26079;45.958;12.492;2023-06-19T06:41:13;6.47;;;5.45;;
40373;SDS011;26079;45.958;12.492;2023-06-19T06:43:40;14.73;;;5.78;;
40373;SDS011;26079;45.958;12.492;2023-06-19T06:46:08;5.88;;;5.28;;
40373;SDS011;26079;45.958;12.492;2023-06-19T06:48:35;7.80;;;6.28;;
40373;SDS011;26079;45.958;12.492;2023-06-19T06:51:01;13.27;;;6.30;;
40373;SDS011;26079;45.958;12.492;2023-06-19T06:53:27;11.32;;;6.30;;
40373;SDS011;26079;45.958;12.492;2023-06-19T06:55:53;7.00;;;5.47;;
40373;SDS011;26079;45.958;12.492;2023-06-19T06:58:19;10.88;;;5.70;;
40373;SDS011;26079;45.958;12.492;2023-06-19T07:00:45;5.32;;;4.93;;
40373;SDS011;26079;45.958;12.492;2023-06-19T07:03:12;5.82;;;5.20;;
40373;SDS011;26079;45.958;12.492;2023-06-19T07:05:38;5.55;;;5.05;;
40373;SDS011;26079;45.958;12.492;2023-06-19T07:08:03;5.78;;;5.20;;
40373;SDS011;26079;45.958;12.492;2023-06-19T07:10:29;5.47;;;4.97;;
40373;SDS011;26079;45.958;12.492;2023-06-19T07:12:55;6.20;;;4.75;;
40373;SDS011;26079;45.958;12.492;2023-06-19T07:15:21;3.88;;;3.58;;
40373;SDS011;26079;45.958;12.492;2023-06-19T07:17:47;4.90;;;4.50;;
40373;SDS011;26079;45.958;12.492;2023-06-19T07:20:13;10.18;;;4.45;;
40373;SDS011;26079;45.958;12.492;2023-06-19T07:22:39;5.00;;;4.32;;
40373;SDS011;26079;45.958;12.492;2023-06-19T07:25:06;8.13;;;4.50;;
40373;SDS011;26079;45.958;12.492;2023-06-19T07:27:32;7.68;;;4.72;;
40373;SDS011;26079;45.958;12.492;2023-06-19T07:29:58;4.93;;;4.30;;
40373;SDS011;26079;45.958;12.492;2023-06-19T07:32:24;5.75;;;5.15;;
40373;SDS011;26079;45.958;12.492;2023-06-19T07:34:50;5.65;;;4.78;;
40373;SDS011;26079;45.958;12.492;2023-06-19T07:37:15;7.45;;;5.28;;
40373;SDS011;26079;45.958;12.492;2023-06-19T07:39:45;12.82;;;5.13;;
40373;SDS011;26079;45.958;12.492;2023-06-19T07:42:14;6.05;;;5.53;;
40373;SDS011;26079;45.958;12.492;2023-06-19T07:44:41;8.75;;;4.97;;
40373;SDS011;26079;45.958;12.492;2023-06-19T07:47:07;8.85;;;5.55;;
40373;SDS011;26079;45.958;12.492;2023-06-19T07:49:33;6.00;;;5.40;;
40373;SDS011;26079;45.958;12.492;2023-06-19T07:51:59;4.97;;;4.47;;
40373;SDS011;26079;45.958;12.492;2023-06-19T07:54:25;6.82;;;4.88;;
40373;SDS011;26079;45.958;12.492;2023-06-19T07:56:51;4.70;;;4.30;;
40373;SDS011;26079;45.958;12.492;2023-06-19T07:59:17;10.45;;;5.25;;
40373;SDS011;26079;45.958;12.492;2023-06-19T08:01:43;6.55;;;5.20;;
40373;SDS011;26079;45.958;12.492;2023-06-19T08:04:09;6.55;;;5.30;;
40373;SDS011;26079;45.958;12.492;2023-06-19T08:06:35;6.57;;;5.50;;
40373;SDS011;26079;45.958;12.492;2023-06-19T08:09:01;4.95;;;4.50;;
40373;SDS011;26079;45.958;12.492;2023-06-19T08:11:27;6.10;;;4.63;;
40373;SDS011;26079;45.958;12.492;2023-06-19T08:13:53;5.13;;;4.20;;
40373;SDS011;26079;45.958;12.492;2023-06-19T08:16:18;6.88;;;5.03;;
40373;SDS011;26079;45.958;12.492;2023-06-19T08:18:44;6.60;;;5.10;;
40373;SDS011;26079;45.958;12.492;2023-06-19T08:21:10;3.92;;;3.55;;
40373;SDS011;26079;45.958;12.492;2023-06-19T08:23:36;5.60;;;5.03;;
40373;SDS011;26079;45.958;12.492;2023-06-19T08:26:08;4.43;;;4.03;;
40373;SDS011;26079;45.958;12.492;2023-06-19T08:28:34;8.40;;;5.10;;
40373;SDS011;26079;45.958;12.492;2023-06-19T08:31:00;5.15;;;4.45;;
40373;SDS011;26079;45.958;12.492;2023-06-19T08:33:26;8.98;;;4.85;;
40373;SDS011;26079;45.958;12.492;2023-06-19T08:35:52;4.93;;;4.43;;
40373;SDS011;26079;45.958;12.492;2023-06-19T08:38:18;8.85;;;5.53;;
40373;SDS011;26079;45.958;12.492;2023-06-19T08:40:43;4.32;;;4.03;;
40373;SDS011;26079;45.958;12.492;2023-06-19T08:43:10;5.40;;;4.13;;
40373;SDS011;26079;45.958;12.492;2023-06-19T08:45:35;4.43;;;4.03;;
40373;SDS011;26079;45.958;12.492;2023-06-19T08:48:01;10.23;;;4.70;;
40373;SDS011;26079;45.958;12.492;2023-06-19T08:50:29;6.53;;;4.78;;
40373;SDS011;26079;45.958;12.492;2023-06-19T08:52:55;3.90;;;3.60;;
40373;SDS011;26079;45.958;12.492;2023-06-19T08:55:22;5.60;;;4.90;;
40373;SDS011;26079;45.958;12.492;2023-06-19T08:57:48;7.43;;;3.75;;
40373;SDS011;26079;45.958;12.492;2023-06-19T09:00:25;3.75;;;3.35;;
40373;SDS011;26079;45.958;12.492;2023-06-19T09:02:52;5.50;;;3.95;;
40373;SDS011;26079;45.958;12.492;2023-06-19T09:05:25;3.65;;;2.80;;
40373;SDS011;26079;45.958;12.492;2023-06-19T09:07:55;3.75;;;3.45;;
40373;SDS011;26079;45.958;12.492;2023-06-19T09:10:27;5.20;;;3.97;;
40373;SDS011;26079;45.958;12.492;2023-06-19T09:12:57;5.88;;;3.58;;
40373;SDS011;26079;45.958;12.492;2023-06-19T09:15:23;12.55;;;3.30;;
40373;SDS011;26079;45.958;12.492;2023-06-19T09:18:10;4.97;;;3.20;;
40373;SDS011;26079;45.958;12.492;2023-06-19T09:20:40;3.28;;;2.97;;
40373;SDS011;26079;45.958;12.492;2023-06-19T09:23:12;11.98;;;3.85;;
40373;SDS011;26079;45.958;12.492;2023-06-19T09:25:48;4.95;;;4.50;;
40373;SDS011;26079;45.958;12.492;2023-06-19T09:28:22;4.60;;;4.00;;
40373;SDS011;26079;45.958;12.492;2023-06-19T09:30:56;4.10;;;3.80;;
40373;SDS011;26079;45.958;12.492;2023-06-19T09:33:28;3.22;;;2.92;;
40373;SDS011;26079;45.958;12.492;2023-06-19T09:35:58;6.65;;;4.28;;
40373;SDS011;26079;45.958;12.492;2023-06-19T09:38:27;4.40;;;4.03;;
40373;SDS011;26079;45.958;12.492;2023-06-19T09:40:56;6.25;;;4.35;;
40373;SDS011;26079;45.958;12.492;2023-06-19T09:43:24;8.35;;;4.57;;
40373;SDS011;26079;45.958;12.492;2023-06-19T09:45:58;7.60;;;4.68;;
40373;SDS011;26079;45.958;12.492;2023-06-19T09:48:29;8.25;;;3.97;;
40373;SDS011;26079;45.958;12.492;2023-06-19T09:51:06;5.50;;;3.78;;
40373;SDS011;26079;45.958;12.492;2023-06-19T09:53:37;6.90;;;3.83;;
40373;SDS011;26079;45.958;12.492;2023-06-19T09:56:03;4.72;;;4.32;;
40373;SDS011;26079;45.958;12.492;2023-06-19T09:58:28;4.18;;;3.78;;
40373;SDS011;26079;45.958;12.492;2023-06-19T10:00:55;5.38;;;3.92;;
40373;SDS011;26079;45.958;12.492;2023-06-19T10:03:29;4.95;;;3.78;;
40373;SDS011;26079;45.958;12.492;2023-06-19T10:06:03;5.68;;;4.20;;
40373;SDS011;26079;45.958;12.492;2023-06-19T10:08:39;9.40;;;4.47;;
40373;SDS011;26079;45.958;12.492;2023-06-19T10:11:07;7.03;;;3.97;;
40373;SDS011;26079;45.958;12.492;2023-06-19T10:13:34;4.15;;;3.72;;
40373;SDS011;26079;45.958;12.492;2023-06-19T10:16:03;22.50;;;4.60;;
40373;SDS011;26079;45.958;12.492;2023-06-19T10:18:29;6.82;;;4.93;;
40373;SDS011;26079;45.958;12.492;2023-06-19T10:20:57;6.07;;;4.85;;
40373;SDS011;26079;45.958;12.492;2023-06-19T10:23:24;41.65;;;13.63;;
40373;SDS011;26079;45.958;12.492;2023-06-19T10:28:19;5.95;;;4.45;;
40373;SDS011;26079;45.958;12.492;2023-06-19T10:30:55;6.05;;;4.00;;
40373;SDS011;26079;45.958;12.492;2023-06-19T10:33:27;22.33;;;8.48;;
40373;SDS011;26079;45.958;12.492;2023-06-19T10:35:54;5.22;;;4.78;;
40373;SDS011;26079;45.958;12.492;2023-06-19T10:38:20;8.63;;;5.70;;
40373;SDS011;26079;45.958;12.492;2023-06-19T10:40:46;4.18;;;3.78;;
40373;SDS011;26079;45.958;12.492;2023-06-19T10:43:13;5.22;;;4.30;;
40373;SDS011;26079;45.958;12.492;2023-06-19T10:45:45;13.10;;;4.22;;
40373;SDS011;26079;45.958;12.492;2023-06-19T10:48:11;4.18;;;3.50;;
40373;SDS011;26079;45.958;12.492;2023-06-19T10:50:44;4.25;;;3.60;;
40373;SDS011;26079;45.958;12.492;2023-06-19T10:53:10;3.97;;;3.67;;
40373;SDS011;26079;45.958;12.492;2023-06-19T10:55:35;5.85;;;4.10;;
40373;SDS011;26079;45.958;12.492;2023-06-19T10:58:01;4.53;;;3.50;;
40373;SDS011;26079;45.958;12.492;2023-06-19T11:00:28;3.22;;;2.92;;
40373;SDS011;26079;45.958;12.492;2023-06-19T11:02:56;6.38;;;4.50;;
40373;SDS011;26079;45.958;12.492;2023-06-19T11:05:23;6.35;;;4.70;;
40373;SDS011;26079;45.958;12.492;2023-06-19T11:07:53;5.57;;;5.07;;
40373;SDS011;26079;45.958;12.492;2023-06-19T11:10:26;4.95;;;4.38;;
40373;SDS011;26079;45.958;12.492;2023-06-19T11:12:57;4.90;;;4.47;;
40373;SDS011;26079;45.958;12.492;2023-06-19T11:15:30;3.80;;;3.42;;
40373;SDS011;26079;45.958;12.492;2023-06-19T11:17:57;3.83;;;3.40;;
40373;SDS011;26079;45.958;12.492;2023-06-19T11:20:27;4.70;;;3.80;;
40373;SDS011;26079;45.958;12.492;2023-06-19T11:23:00;6.25;;;3.70;;
40373;SDS011;26079;45.958;12.492;2023-06-19T11:28:05;4.00;;;3.60;;
40373;SDS011;26079;45.958;12.492;2023-06-19T11:30:38;4.18;;;3.75;;
40373;SDS011;26079;45.958;12.492;2023-06-19T11:33:20;3.85;;;3.50;;
40373;SDS011;26079;45.958;12.492;2023-06-19T11:35:49;5.00;;;3.40;;
40373;SDS011;26079;45.958;12.492;2023-06-19T11:38:17;4.28;;;3.88;;
40373;SDS011;26079;45.958;12.492;2023-06-19T11:40:44;7.82;;;3.38;;
40373;SDS011;26079;45.958;12.492;2023-06-19T11:43:10;4.90;;;3.80;;
40373;SDS011;26079;45.958;12.492;2023-06-19T11:45:49;6.55;;;4.03;;
40373;SDS011;26079;45.958;12.492;2023-06-19T11:48:25;4.15;;;3.75;;
40373;SDS011;26079;45.958;12.492;2023-06-19T11:50:51;4.05;;;3.58;;
40373;SDS011;26079;45.958;12.492;2023-06-19T11:53:19;4.88;;;4.30;;
40373;SDS011;26079;45.958;12.492;2023-06-19T11:55:45;5.55;;;4.15;;
40373;SDS011;26079;45.958;12.492;2023-06-19T11:58:11;19.08;;;4.70;;
40373;SDS011;26079;45.958;12.492;2023-06-19T12:00:37;4.18;;;3.78;;
40373;SDS011;26079;45.958;12.492;2023-06-19T12:03:03;6.20;;;4.10;;
40373;SDS011;26079;45.958;12.492;2023-06-19T12:05:29;4.25;;;3.63;;
40373;SDS011;26079;45.958;12.492;2023-06-19T12:07:54;6.70;;;4.15;;
40373;SDS011;26079;45.958;12.492;2023-06-19T12:10:20;10.88;;;3.47;;
40373;SDS011;26079;45.958;12.492;2023-06-19T12:12:46;8.25;;;4.43;;
40373;SDS011;26079;45.958;12.492;2023-06-19T12:15:12;4.95;;;3.45;;
40373;SDS011;26079;45.958;12.492;2023-06-19T12:17:38;7.35;;;4.07;;
40373;SDS011;26079;45.958;12.492;2023-06-19T12:20:04;4.93;;;3.50;;
40373;SDS011;26079;45.958;12.492;2023-06-19T12:22:31;3.10;;;2.90;;
40373;SDS011;26079;45.958;12.492;2023-06-19T12:24:58;5.70;;;3.78;;
40373;SDS011;26079;45.958;12.492;2023-06-19T12:27:24;5.13;;;4.28;;
40373;SDS011;26079;45.958;12.492;2023-06-19T12:29:49;5.72;;;4.30;;
40373;SDS011;26079;45.958;12.492;2023-06-19T12:32:15;4.00;;;3.70;;
40373;SDS011;26079;45.958;12.492;2023-06-19T12:34:41;7.70;;;4.35;;
40373;SDS011;26079;45.958;12.492;2023-06-19T12:37:11;4.97;;;4.35;;
40373;SDS011;26079;45.958;12.492;2023-06-19T12:39:40;4.00;;;3.63;;
40373;SDS011;26079;45.958;12.492;2023-06-19T12:42:06;3.95;;;3.65;;
40373;SDS011;26079;45.958;12.492;2023-06-19T12:44:32;5.40;;;4.43;;
40373;SDS011;26079;45.958;12.492;2023-06-19T12:46:58;8.55;;;4.07;;
40373;SDS011;26079;45.958;12.492;2023-06-19T12:49:25;4.63;;;3.30;;
40373;SDS011;26079;45.958;12.492;2023-06-19T12:51:51;3.13;;;2.67;;
40373;SDS011;26079;45.958;12.492;2023-06-19T12:54:17;3.58;;;3.28;;
40373;SDS011;26079;45.958;12.492;2023-06-19T12:56:43;4.13;;;3.72;;
40373;SDS011;26079;45.958;12.492;2023-06-19T12:59:10;5.95;;;4.00;;
40373;SDS011;26079;45.958;12.492;2023-06-19T13:01:35;5.05;;;4.13;;
40373;SDS011;26079;45.958;12.492;2023-06-19T13:04:01;3.25;;;2.97;;
40373;SDS011;26079;45.958;12.492;2023-06-19T13:06:27;3.88;;;3.40;;
40373;SDS011;26079;45.958;12.492;2023-06-19T13:08:53;4.10;;;3.75;;
40373;SDS011;26079;45.958;12.492;2023-06-19T13:11:19;4.10;;;3.70;;
40373;SDS011;26079;45.958;12.492;2023-06-19T13:16:17;6.40;;;4.70;;
40373;SDS011;26079;45.958;12.492;2023-06-19T13:18:43;4.50;;;4.10;;
40373;SDS011;26079;45.958;12.492;2023-06-19T13:21:09;4.53;;;3.58;;
40373;SDS011;26079;45.958;12.492;2023-06-19T13:23:36;4.03;;;3.60;;
40373;SDS011;26079;45.958;12.492;2023-06-19T13:26:01;4.18;;;3.45;;
40373;SDS011;26079;45.958;12.492;2023-06-19T13:28:27;5.05;;;4.55;;
40373;SDS011;26079;45.958;12.492;2023-06-19T13:30:53;4.32;;;3.47;;
40373;SDS011;26079;45.958;12.492;2023-06-19T13:33:19;5.55;;;4.18;;
40373;SDS011;26079;45.958;12.492;2023-06-19T13:35:45;3.92;;;3.20;;
40373;SDS011;26079;45.958;12.492;2023-06-19T13:38:10;8.55;;;3.38;;
40373;SDS011;26079;45.958;12.492;2023-06-19T13:40:36;3.40;;;3.10;;
40373;SDS011;26079;45.958;12.492;2023-06-19T13:43:02;5.53;;;3.85;;
40373;SDS011;26079;45.958;12.492;2023-06-19T13:45:28;3.45;;;3.10;;
40373;SDS011;26079;45.958;12.492;2023-06-19T13:47:55;4.47;;;3.42;;
40373;SDS011;26079;45.958;12.492;2023-06-19T13:50:23;4.72;;;3.95;;
40373;SDS011;26079;45.958;12.492;2023-06-19T13:52:49;3.97;;;3.50;;
40373;SDS011;26079;45.958;12.492;2023-06-19T13:55:15;4.05;;;3.75;;
40373;SDS011;26079;45.958;12.492;2023-06-19T13:57:41;7.65;;;3.63;;
40373;SDS011;26079;45.958;12.492;2023-06-19T14:00:08;3.63;;;3.20;;
40373;SDS011;26079;45.958;12.492;2023-06-19T14:02:36;4.32;;;3.47;;
40373;SDS011;26079;45.958;12.492;2023-06-19T14:05:06;7.43;;;3.47;;
40373;SDS011;26079;45.958;12.492;2023-06-19T14:07:32;4.00;;;3.00;;
40373;SDS011;26079;45.958;12.492;2023-06-19T14:10:00;3.35;;;2.97;;
40373;SDS011;26079;45.958;12.492;2023-06-19T14:12:26;5.60;;;4.18;;
40373;SDS011;26079;45.958;12.492;2023-06-19T14:14:52;5.85;;;3.70;;
40373;SDS011;26079;45.958;12.492;2023-06-19T14:17:21;4.25;;;3.72;;
40373;SDS011;26079;45.958;12.492;2023-06-19T14:19:47;5.15;;;3.92;;
40373;SDS011;26079;45.958;12.492;2023-06-19T14:22:12;3.78;;;3.47;;
40373;SDS011;26079;45.958;12.492;2023-06-19T14:24:38;6.75;;;4.00;;
40373;SDS011;26079;45.958;12.492;2023-06-19T14:27:04;6.93;;;3.83;;
40373;SDS011;26079;45.958;12.492;2023-06-19T14:29:30;3.67;;;3.40;;
40373;SDS011;26079;45.958;12.492;2023-06-19T14:31:55;3.72;;;3.10;;
40373;SDS011;26079;45.958;12.492;2023-06-19T14:34:21;4.38;;;3.40;;
40373;SDS011;26079;45.958;12.492;2023-06-19T14:36:47;7.00;;;4.13;;